createdAt,value
2023-03-13T00:00:01.710Z,6.40
2023-03-13T00:05:03.953Z,6.93
2023-03-13T00:10:06.810Z,6.00
2023-03-13T00:15:11.033Z,6.00
2023-03-13T00:20:13.020Z,7.80
2023-03-13T00:25:14.810Z,6.00
2023-03-13T00:30:18.210Z,6.23
2023-03-13T00:35:19.939Z,6.20
2023-03-13T00:40:22.448Z,6.70
2023-03-13T00:45:26.808Z,5.27
2023-03-13T00:50:28.538Z,5.37
2023-03-13T00:55:30.254Z,5.47
2023-03-13T01:00:33.272Z,5.10
2023-03-13T01:05:34.961Z,5.33
2023-03-13T01:10:36.689Z,5.30
2023-03-13T01:15:39.965Z,5.47
2023-03-13T01:20:41.734Z,5.90
2023-03-13T01:25:43.930Z,4.67
2023-03-13T01:30:47.168Z,5.63
2023-03-13T01:35:49.279Z,5.50
2023-03-13T01:40:51.035Z,6.30
2023-03-13T01:46:05.927Z,4.90
2023-03-13T01:51:27.101Z,5.60
2023-03-13T01:56:34.495Z,5.00
2023-03-13T02:01:38.687Z,5.57
2023-03-13T02:06:41.676Z,5.23
2023-03-13T02:11:47.645Z,4.40
2023-03-13T02:16:52.009Z,5.17
2023-03-13T02:21:54.827Z,4.77
2023-03-13T02:26:57.874Z,4.20
2023-03-13T02:31:59.717Z,4.53
2023-03-13T02:37:01.617Z,5.00
2023-03-13T02:42:05.232Z,5.40
2023-03-13T02:47:09.888Z,5.50
2023-03-13T02:52:13.346Z,4.70
2023-03-13T02:57:18.900Z,4.53
2023-03-13T03:02:20.825Z,5.30
2023-03-13T03:07:22.711Z,5.70
2023-03-13T03:12:26.806Z,5.97
2023-03-13T03:17:28.709Z,5.60
2023-03-13T03:22:30.541Z,5.33
2023-03-13T03:27:33.688Z,5.47
2023-03-13T03:32:35.597Z,5.70
2023-03-13T03:37:37.445Z,6.17
2023-03-13T03:42:41.383Z,4.73
2023-03-13T03:47:43.336Z,4.60
2023-03-13T03:52:46.106Z,4.67
2023-03-13T03:57:49.303Z,5.47
2023-03-13T04:03:00.043Z,5.40
2023-03-13T04:08:01.948Z,5.30
2023-03-13T04:13:05.027Z,5.37
2023-03-13T04:18:07.532Z,6.20
2023-03-13T04:23:09.270Z,4.80
2023-03-13T04:28:12.457Z,6.20
2023-03-13T04:33:18.557Z,4.70
2023-03-13T04:38:43.203Z,5.00
2023-03-13T04:43:59.719Z,5.27
2023-03-13T04:49:18.885Z,5.10
2023-03-13T04:54:39.143Z,5.60
2023-03-13T05:00:08.108Z,6.47
2023-03-13T05:05:26.165Z,5.77
2023-03-13T05:10:52.443Z,6.70
2023-03-13T05:16:14.771Z,5.90
2023-03-13T05:21:44.223Z,5.33
2023-03-13T05:27:02.507Z,5.47
2023-03-13T05:32:25.989Z,5.20
2023-03-13T05:37:48.054Z,6.13
2023-03-13T05:43:28.337Z,5.80
2023-03-13T05:48:52.726Z,5.10
2023-03-13T05:54:10.651Z,5.00
2023-03-13T05:59:32.608Z,4.60
2023-03-13T06:04:58.957Z,4.97
2023-03-13T06:10:00.906Z,4.20
2023-03-13T06:15:02.832Z,5.23
2023-03-13T06:20:26.176Z,4.00
2023-03-13T06:25:27.916Z,4.67
2023-03-13T06:30:29.649Z,4.57
2023-03-13T06:35:34.317Z,5.10
2023-03-13T06:40:38.850Z,4.40
2023-03-13T06:45:40.533Z,5.40
2023-03-13T06:50:43.638Z,4.70
2023-03-13T06:55:45.382Z,4.57
2023-03-13T07:00:47.305Z,4.00
2023-03-13T07:05:55.157Z,4.10
2023-03-13T07:10:59.022Z,4.87
2023-03-13T07:16:01.189Z,4.30
2023-03-13T07:21:07.363Z,3.70
2023-03-13T07:26:11.037Z,4.30
2023-03-13T07:31:14.979Z,3.67
2023-03-13T07:36:18.415Z,3.20
2023-03-13T07:41:20.351Z,3.20
2023-03-13T07:46:22.579Z,3.20
2023-03-13T07:51:42.216Z,5.50
2023-03-13T07:56:44.965Z,2.87
2023-03-13T08:01:46.678Z,3.00
2023-03-13T08:06:49.779Z,3.20
2023-03-13T08:11:51.480Z,2.27
2023-03-13T08:16:53.259Z,4.23
2023-03-13T08:21:56.336Z,2.37
2023-03-13T08:26:58.072Z,2.70
2023-03-13T08:31:59.739Z,2.50
2023-03-13T08:37:02.742Z,2.90
2023-03-13T08:42:04.548Z,2.20
2023-03-13T08:47:06.432Z,1.73
2023-03-13T08:52:09.594Z,2.00
2023-03-13T08:57:11.254Z,1.80
2023-03-13T09:02:18.730Z,1.50
2023-03-13T09:07:21.752Z,2.20
2023-03-13T09:12:30.764Z,2.10
2023-03-13T09:17:32.624Z,1.83
2023-03-13T09:22:35.649Z,1.60
2023-03-13T09:27:37.328Z,1.67
2023-03-13T09:32:39.007Z,2.00
2023-03-13T09:37:42.033Z,1.50
2023-03-13T09:42:46.269Z,2.23
2023-03-13T09:47:49.146Z,2.00
2023-03-13T09:52:54.662Z,1.80
2023-03-13T09:57:57.059Z,2.17
2023-03-13T10:03:02.322Z,2.20
2023-03-13T10:08:13.220Z,1.97
2023-03-13T10:13:18.113Z,2.20
2023-03-13T10:18:23.704Z,2.63
2023-03-13T10:23:29.931Z,2.30
2023-03-13T10:28:31.630Z,2.10
2023-03-13T10:33:34.075Z,2.20
2023-03-13T10:38:48.648Z,2.03
2023-03-13T10:43:51.722Z,2.20
2023-03-13T10:48:54.411Z,2.10
2023-03-13T10:53:57.463Z,2.00
2023-03-13T10:58:59.172Z,2.00
2023-03-13T11:04:01.003Z,1.87
2023-03-13T11:09:11.034Z,2.07
2023-03-13T11:14:14.582Z,2.00
2023-03-13T11:19:29.648Z,1.80
2023-03-13T11:24:36.722Z,1.70
2023-03-13T11:29:42.429Z,1.77
2023-03-13T11:34:46.236Z,1.80
2023-03-13T11:39:53.608Z,2.20
2023-03-13T11:44:57.441Z,1.70
2023-03-13T11:50:28.941Z,1.70
2023-03-13T11:55:58.651Z,1.90
2023-03-13T12:01:01.751Z,1.70
2023-03-13T12:06:03.928Z,1.70
2023-03-13T12:11:12.532Z,1.73
2023-03-13T12:16:15.797Z,1.70
2023-03-13T12:21:19.578Z,1.50
2023-03-13T12:26:35.169Z,1.90
2023-03-13T12:31:38.236Z,1.70
2023-03-13T12:36:41.486Z,1.50
2023-03-13T12:41:45.063Z,2.30
2023-03-13T12:46:47.367Z,1.97
2023-03-13T12:51:57.835Z,1.63
2023-03-13T12:57:10.664Z,2.17
2023-03-13T13:02:16.654Z,2.07
2023-03-13T13:07:23.401Z,1.90
2023-03-13T13:12:26.471Z,1.70
2023-03-13T13:17:40.799Z,1.63
2023-03-13T13:22:47.168Z,1.87
2023-03-13T13:27:50.691Z,1.80
2023-03-13T13:32:52.542Z,1.80
2023-03-13T13:38:14.149Z,1.93
2023-03-13T13:43:21.655Z,1.80
2023-03-13T13:48:28.236Z,2.73
2023-03-13T13:53:31.031Z,1.67
2023-03-13T13:58:34.778Z,1.37
2023-03-13T14:03:42.096Z,1.70
2023-03-13T14:08:45.074Z,1.27
2023-03-13T14:14:03.098Z,1.27
2023-03-13T14:19:04.970Z,1.43
2023-03-13T14:24:13.301Z,1.23
2023-03-13T14:29:25.674Z,1.60
2023-03-13T14:34:30.978Z,1.00
2023-03-13T14:39:38.173Z,3.00
2023-03-13T14:44:43.781Z,4.63
2023-03-13T14:49:45.563Z,1.67
2023-03-13T14:54:52.586Z,1.50
2023-03-13T14:59:56.005Z,1.90
2023-03-13T15:04:59.607Z,1.60
2023-03-13T15:10:01.372Z,1.83
2023-03-13T15:15:05.044Z,1.70
2023-03-13T15:20:09.529Z,1.27
2023-03-13T15:25:15.396Z,1.10
2023-03-13T15:30:19.619Z,1.40
2023-03-13T15:35:27.394Z,2.10
2023-03-13T15:40:31.092Z,1.53
2023-03-13T15:45:34.231Z,1.23
2023-03-13T15:50:35.954Z,1.27
2023-03-13T15:55:37.668Z,1.10
2023-03-13T16:00:40.879Z,1.27
2023-03-13T16:05:42.783Z,1.70
2023-03-13T16:10:44.570Z,1.90
2023-03-13T16:15:48.949Z,1.43
2023-03-13T16:20:52.119Z,2.40
2023-03-13T16:25:53.833Z,8.10
2023-03-13T16:30:57.018Z,4.73
2023-03-13T16:35:58.764Z,2.70
2023-03-13T16:41:00.493Z,3.67
2023-03-13T16:46:06.322Z,2.60
2023-03-13T16:51:17.346Z,2.40
2023-03-13T16:56:21.868Z,2.90
2023-03-13T17:01:26.032Z,1.20
2023-03-13T17:06:28.682Z,1.47
2023-03-13T17:11:30.440Z,1.30
2023-03-13T17:16:34.442Z,1.50
2023-03-13T17:21:36.726Z,1.40
2023-03-13T17:26:38.907Z,1.63
2023-03-13T17:31:41.996Z,2.27
2023-03-13T17:36:44.533Z,1.77
2023-03-13T17:41:46.255Z,1.53
2023-03-13T17:46:51.179Z,1.40
2023-03-13T17:51:53.147Z,1.60
2023-03-13T17:56:56.374Z,1.90
2023-03-13T18:01:59.565Z,1.80
2023-03-13T18:07:01.290Z,2.40
2023-03-13T18:12:03.263Z,3.27
2023-03-13T18:17:13.387Z,2.60
2023-03-13T18:22:15.907Z,1.90
2023-03-13T18:27:18.725Z,2.43
2023-03-13T18:32:21.915Z,3.47
2023-03-13T18:37:26.076Z,1.90
2023-03-13T18:42:27.846Z,1.97
2023-03-13T18:47:31.400Z,2.47
2023-03-13T18:52:33.176Z,2.90
2023-03-13T18:57:34.979Z,2.50
2023-03-13T19:02:38.104Z,2.53
2023-03-13T19:07:39.965Z,3.37
2023-03-13T19:12:41.680Z,6.40
2023-03-13T19:17:44.816Z,4.30
2023-03-13T19:22:46.556Z,6.53
2023-03-13T19:27:48.363Z,3.50
2023-03-13T19:32:51.517Z,2.20
2023-03-13T19:37:53.317Z,2.50
2023-03-13T19:42:55.015Z,2.30
2023-03-13T19:47:57.983Z,2.10
2023-03-13T19:52:59.714Z,2.50
2023-03-13T19:58:03.910Z,2.40
2023-03-13T20:03:07.159Z,2.70
2023-03-13T20:08:08.917Z,2.40
2023-03-13T20:13:10.866Z,3.30
2023-03-13T20:18:13.912Z,2.43
2023-03-13T20:23:15.798Z,2.90
2023-03-13T20:28:17.503Z,2.70
2023-03-13T20:33:20.637Z,2.30
2023-03-13T20:38:22.796Z,2.73
2023-03-13T20:43:24.718Z,5.53
2023-03-13T20:48:28.002Z,14.17
2023-03-13T20:53:29.738Z,18.50
2023-03-13T20:58:31.528Z,16.37
2023-03-13T21:03:35.849Z,5.77
2023-03-13T21:08:38.875Z,3.30
2023-03-13T21:13:40.839Z,2.63
2023-03-13T21:18:43.890Z,2.57
2023-03-13T21:23:45.741Z,2.80
2023-03-13T21:28:47.994Z,2.30
2023-03-13T21:33:51.106Z,2.47
2023-03-13T21:38:52.899Z,2.27
2023-03-13T21:43:55.797Z,2.63
2023-03-13T21:48:59.004Z,2.37
2023-03-13T21:54:00.850Z,3.33
2023-03-13T21:59:02.612Z,2.20
2023-03-13T22:04:05.767Z,2.03
2023-03-13T22:09:08.597Z,2.20
2023-03-13T22:14:10.296Z,1.90
2023-03-13T22:19:14.194Z,1.87
2023-03-13T22:24:16.001Z,2.00
2023-03-13T22:29:17.697Z,2.10
2023-03-13T22:34:20.738Z,3.03
2023-03-13T22:39:22.544Z,2.30
2023-03-13T22:44:24.442Z,1.90
2023-03-13T22:49:27.820Z,4.23
2023-03-13T22:54:29.606Z,5.27
2023-03-13T22:59:31.594Z,2.40
2023-03-13T23:04:34.801Z,2.53
2023-03-13T23:09:36.681Z,2.43
2023-03-13T23:14:38.475Z,2.40
2023-03-13T23:19:41.819Z,2.20
2023-03-13T23:24:43.554Z,2.30
2023-03-13T23:29:45.430Z,2.17
2023-03-13T23:34:48.456Z,2.07
2023-03-13T23:39:50.156Z,2.23
2023-03-13T23:44:51.870Z,2.50
2023-03-13T23:49:55.041Z,3.10
2023-03-13T23:54:57.030Z,3.17
